Monroe, Virginia
Current Conditions -  °F | °C
As of 11:21 PM on Wednesday 26 Nov 2014 (Local Time) from KLYH Reporting Station
Few Clouds Few Clouds  
Wind Chill: 35°   Ceiling: Unl
Heat Index: 35°   Visibility: NA
Dew Point: 34°   Wind: 0mph
Humidity: 96%   Direction: NA
Pressure: 30.01"   Gusts: NA
Location:  37.5°N, 79.13°W
Report Text: KLYH 270421Z AUTO 00000KT FEW001 FEW070 02/01 A3001 RMK AO2 T00170011 $
Loading
Personal Weather Stations






























Interactive Weather Map New forecast layout! Learn more

10-Day Weather Forecast

Advertisements
Track Severe Weather on mobile